Time;durP1;ratioP1;P1;durP2;ratioP2;P2;SDS_P1;SDS_P2;PMS_P1;PMS_P2;Temp;Humidity;BMP_temperature;BMP_pressure;BME280_temperature;BME280_humidity;BME280_pressure;Samples;Min_cycle;Max_cycle;Signal;HPM_P1;HPM_P2
2022/04/20 00:02:08;;;;;;;5.57;4.32;;;;;;;9.97;50.56;100872.34;5076244;28;20033;-91
2022/04/20 00:04:39;;;;;;;7.50;4.13;;;;;;;9.91;50.09;100852.06;5076273;28;20049;-89
2022/04/20 00:07:06;;;;;;;10.77;4.03;;;;;;;9.79;49.98;100840.97;5076449;28;20029;-90
2022/04/20 00:09:32;;;;;;;5.40;4.00;;;;;;;9.80;50.57;100847.84;5076319;28;20079;-89
2022/04/20 00:11:59;;;;;;;5.40;3.90;;;;;;;9.93;50.56;100871.00;5076068;28;20037;-90
2022/04/20 00:14:27;;;;;;;5.93;4.32;;;;;;;9.87;50.97;100861.16;5076774;28;20075;-90
2022/04/20 00:16:54;;;;;;;6.30;3.90;;;;;;;9.80;50.93;100863.53;5076326;28;20051;-90
2022/04/20 00:19:21;;;;;;;7.28;4.15;;;;;;;9.63;51.53;100846.81;5061727;28;20052;-89
2022/04/20 00:21:48;;;;;;;5.97;4.10;;;;;;;9.73;51.24;100859.84;5061000;28;20045;-89
2022/04/20 00:24:14;;;;;;;7.97;4.20;;;;;;;9.55;51.36;100838.88;5059898;28;20069;-90
2022/04/20 00:26:41;;;;;;;6.18;4.10;;;;;;;9.52;51.48;100839.16;5058908;28;20045;-89
2022/04/20 00:29:08;;;;;;;6.65;4.40;;;;;;;9.64;51.24;100853.69;5060100;28;20049;-89
2022/04/20 00:31:36;;;;;;;6.40;4.20;;;;;;;9.59;51.81;100863.75;5060264;28;20045;-89
2022/04/20 00:34:03;;;;;;;5.20;4.13;;;;;;;9.37;51.83;100838.00;5059830;28;20057;-90
2022/04/20 00:36:30;;;;;;;7.15;4.28;;;;;;;9.30;52.53;100863.03;5058569;28;20357;-90
2022/04/20 00:38:57;;;;;;;6.20;4.30;;;;;;;9.25;52.61;100850.41;5059157;28;20053;-89
2022/04/20 00:44:06;;;;;;;6.00;4.00;;;;;;;9.19;52.66;100845.75;5057580;28;20415;-90
2022/04/20 00:46:34;;;;;;;6.88;4.20;;;;;;;9.07;53.07;100838.22;5056589;28;20098;-89
2022/04/20 00:49:03;;;;;;;6.45;4.10;;;;;;;9.11;53.55;100857.84;5057140;28;20052;-90
2022/04/20 00:51:31;;;;;;;6.00;3.90;;;;;;;9.13;53.70;100861.16;5059220;28;20076;-90
2022/04/20 00:54:00;;;;;;;8.88;4.28;;;;;;;9.21;53.68;100866.50;5058814;28;20088;-89
2022/04/20 00:56:27;;;;;;;8.00;3.80;;;;;;;9.13;53.93;100866.38;5056526;28;20135;-89
2022/04/20 00:58:56;;;;;;;7.05;4.68;;;;;;;8.98;54.26;100858.97;5056770;28;20067;-90
2022/04/20 01:01:26;;;;;;;6.07;4.10;;;;;;;8.98;54.91;100873.81;5059562;28;20069;-90
2022/04/20 01:03:53;;;;;;;4.57;3.72;;;;;;;8.83;54.91;100843.91;5058238;28;20049;-90
2022/04/20 01:06:22;;;;;;;5.70;3.97;;;;;;;8.85;55.19;100857.66;5056891;28;20048;-91
2022/04/20 01:08:50;;;;;;;6.15;4.18;;;;;;;8.87;55.55;100871.38;5056916;28;20068;-90
2022/04/20 01:11:16;;;;;;;6.53;4.30;;;;;;;8.75;55.85;100856.81;5058719;28;20044;-90
2022/04/20 01:13:44;;;;;;;5.70;3.70;;;;;;;8.71;55.51;100860.66;5059356;28;20408;-90
2022/04/20 01:16:11;;;;;;;5.20;3.78;;;;;;;8.66;56.24;100858.47;5059989;28;20057;-89
2022/04/20 01:18:43;;;;;;;6.28;4.28;;;;;;;8.60;56.23;100854.63;5059315;28;20110;-90
2022/04/20 01:21:12;;;;;;;8.15;4.00;;;;;;;8.54;56.24;100849.97;5057220;28;20049;-90
2022/04/20 01:23:39;;;;;;;5.70;4.65;;;;;;;8.58;56.38;100850.50;5056928;28;20076;-90
2022/04/20 01:26:08;;;;;;;5.45;3.92;;;;;;;8.45;56.43;100845.59;5056391;28;20068;-90
2022/04/20 01:28:36;;;;;;;7.90;3.85;;;;;;;8.49;56.29;100833.09;5057185;28;20053;-90
2022/04/20 01:31:03;;;;;;;6.45;3.70;;;;;;;8.61;56.08;100851.06;5055779;28;20099;-90
2022/04/20 01:33:30;;;;;;;6.10;3.90;;;;;;;8.54;56.07;100849.13;5059043;28;20434;-91
2022/04/20 01:35:56;;;;;;;6.70;4.05;;;;;;;8.51;55.77;100836.38;5056022;28;20115;-90
2022/04/20 01:38:25;;;;;;;6.53;3.95;;;;;;;8.62;55.19;100851.88;5060134;28;20080;-90
2022/04/20 01:40:51;;;;;;;6.25;4.28;;;;;;;8.62;55.60;100860.53;5060603;28;20102;-89
2022/04/20 01:43:18;;;;;;;7.75;4.90;;;;;;;8.43;55.60;100837.09;5060400;28;20049;-90
2022/04/20 01:45:45;;;;;;;7.78;4.10;;;;;;;8.45;55.55;100829.13;5060860;28;20048;-89
2022/04/20 01:48:14;;;;;;;6.40;4.38;;;;;;;8.44;55.46;100838.72;5059883;28;20045;-91
2022/04/20 01:53:22;;;;;;;6.13;4.40;;;;;;;8.43;55.81;100852.72;5059657;28;20060;-89
2022/04/20 01:55:50;;;;;;;5.93;3.90;;;;;;;8.37;56.24;100855.03;5061129;28;20071;-90
2022/04/20 01:58:17;;;;;;;5.68;4.07;;;;;;;8.21;56.28;100840.72;5061848;28;20132;-90
2022/04/20 02:00:44;;;;;;;5.68;4.13;;;;;;;8.23;56.62;100857.06;5058884;28;20525;-90
2022/04/20 02:03:10;;;;;;;6.30;4.13;;;;;;;8.07;56.88;100843.72;5059390;28;20045;-90
2022/04/20 02:05:37;;;;;;;6.65;4.22;;;;;;;8.12;57.68;100872.81;5058343;28;20059;-90
2022/04/20 02:08:04;;;;;;;7.90;3.90;;;;;;;7.93;58.07;100850.16;5058892;28;20573;-89
2022/04/20 02:10:31;;;;;;;4.90;3.80;;;;;;;7.89;57.37;100853.16;5059822;28;20045;-89
2022/04/20 02:12:59;;;;;;;5.35;3.92;;;;;;;7.79;58.43;100867.94;5058789;28;20055;-90
2022/04/20 02:15:27;;;;;;;6.38;4.18;;;;;;;7.74;58.87;100867.50;5059744;28;20045;-89
2022/04/20 02:17:54;;;;;;;7.63;3.95;;;;;;;7.61;59.50;100867.72;5059746;28;20591;-89
2022/04/20 02:20:21;;;;;;;6.20;4.57;;;;;;;7.59;60.28;100882.66;5059217;28;20072;-89
2022/04/20 02:22:48;;;;;;;7.68;4.35;;;;;;;7.42;61.40;100868.47;5059383;28;20091;-89
2022/04/20 02:25:14;;;;;;;5.50;4.10;;;;;;;7.24;62.46;100849.19;5060071;28;20071;-90
2022/04/20 02:27:41;;;;;;;7.65;5.15;;;;;;;7.08;63.04;100849.69;5060516;28;20049;-90
2022/04/20 02:30:11;;;;;;;10.07;4.93;;;;;;;7.06;64.06;100863.75;5060450;28;20048;-89
2022/04/20 02:32:37;;;;;;;6.20;4.88;;;;;;;6.86;64.68;100862.81;5059993;28;20123;-89
2022/04/20 02:35:05;;;;;;;10.98;4.93;;;;;;;6.80;65.34;100858.94;5059423;28;20028;-89
2022/04/20 02:37:32;;;;;;;8.55;4.88;;;;;;;6.72;65.91;100879.53;5058793;28;20048;-89
2022/04/20 02:39:58;;;;;;;7.78;4.93;;;;;;;6.64;65.91;100863.72;5058949;28;20134;-89
2022/04/20 02:42:26;;;;;;;6.63;4.82;;;;;;;6.55;66.06;100864.50;5058516;28;20064;-90
2022/04/20 02:44:53;;;;;;;9.75;4.80;;;;;;;6.60;65.96;100872.75;5059555;28;20076;-89
2022/04/20 02:47:21;;;;;;;7.45;4.93;;;;;;;6.41;66.23;100873.41;5060527;28;20468;-89
2022/04/20 02:49:48;;;;;;;7.35;4.80;;;;;;;6.40;66.44;100873.53;5059701;28;20472;-89
2022/04/20 02:52:15;;;;;;;7.53;4.80;;;;;;;6.29;66.76;100854.41;5059027;28;20045;-89
2022/04/20 02:54:41;;;;;;;12.57;4.70;;;;;;;6.51;66.08;100895.13;5059522;28;20405;-89
2022/04/20 02:57:08;;;;;;;7.18;4.50;;;;;;;6.31;66.25;100862.91;5060782;28;20102;-89
2022/04/20 02:59:35;;;;;;;8.43;4.70;;;;;;;6.35;66.24;100878.25;5059420;28;20076;-88
2022/04/20 03:02:02;;;;;;;6.85;5.10;;;;;;;6.32;66.39;100858.53;5059355;28;20060;-89
2022/04/20 03:04:30;;;;;;;7.20;4.78;;;;;;;6.33;66.65;100876.59;5059712;28;20052;-90
2022/04/20 03:06:57;;;;;;;7.20;4.88;;;;;;;6.48;67.30;100889.34;5058787;28;20059;-89
2022/04/20 03:09:24;;;;;;;6.43;4.72;;;;;;;6.27;66.41;100871.06;5060089;28;20044;-89
2022/04/20 03:11:51;;;;;;;7.38;4.60;;;;;;;6.41;67.14;100889.00;5060166;28;20053;-90
2022/04/20 03:14:18;;;;;;;9.15;4.97;;;;;;;6.41;66.96;100893.38;5060289;28;20056;-90
2022/04/20 03:16:45;;;;;;;6.43;4.93;;;;;;;6.25;67.00;100868.59;5059734;28;20080;-89
2022/04/20 03:19:12;;;;;;;6.72;4.93;;;;;;;6.52;66.96;100901.13;5058580;28;20066;-89
2022/04/20 03:21:41;;;;;;;7.40;4.80;;;;;;;6.47;66.80;100892.88;5060345;28;20044;-89
2022/04/20 03:24:08;;;;;;;8.48;5.28;;;;;;;6.40;67.21;100902.13;5059282;28;20064;-90
2022/04/20 03:26:35;;;;;;;7.45;5.10;;;;;;;6.45;66.64;100897.38;5059686;28;20387;-88
2022/04/20 03:29:01;;;;;;;7.93;5.15;;;;;;;6.25;68.06;100884.19;5059345;28;20056;-88
2022/04/20 03:31:28;;;;;;;20.35;7.90;;;;;;;6.25;69.03;100898.94;5059706;28;20066;-88
2022/04/20 03:33:55;;;;;;;9.55;5.13;;;;;;;6.24;69.43;100898.13;5060770;28;20045;-88
2022/04/20 03:36:22;;;;;;;13.18;5.30;;;;;;;6.18;69.75;100903.81;5059697;28;20423;-88
2022/04/20 03:38:50;;;;;;;8.07;5.25;;;;;;;6.11;69.89;100894.88;5060386;28;20084;-89
2022/04/20 03:41:16;;;;;;;9.27;5.57;;;;;;;5.98;70.13;100901.97;5060291;28;20052;-88
2022/04/20 03:43:44;;;;;;;8.00;5.57;;;;;;;6.02;70.69;100908.56;5060819;28;20049;-89
2022/04/20 03:46:11;;;;;;;8.27;5.60;;;;;;;5.82;71.01;100885.88;5061113;28;20041;-89
2022/04/20 03:48:38;;;;;;;7.88;5.00;;;;;;;5.68;71.00;100894.72;5061070;28;20661;-88
2022/04/20 03:51:04;;;;;;;13.40;5.82;;;;;;;5.73;71.67;100904.75;5062371;28;20147;-88
2022/04/20 03:53:31;;;;;;;7.25;5.22;;;;;;;5.69;71.56;100906.78;5062156;28;20114;-88
2022/04/20 03:55:59;;;;;;;9.40;5.47;;;;;;;5.70;71.24;100902.41;5060267;28;20650;-88
2022/04/20 03:58:26;;;;;;;9.40;5.03;;;;;;;5.70;71.49;100917.97;5060061;28;20075;-88
2022/04/20 04:00:53;;;;;;;10.38;5.70;;;;;;;5.64;71.14;100895.94;5059197;28;20041;-89
2022/04/20 04:03:20;;;;;;;7.40;5.20;;;;;;;5.67;71.57;100911.28;5060633;28;20053;-88
2022/04/20 04:05:47;;;;;;;6.47;4.70;;;;;;;5.68;71.16;100918.91;5060260;28;20053;-89
2022/04/20 04:08:14;;;;;;;9.32;5.22;;;;;;;5.76;71.17;100914.91;5059816;28;20122;-89
2022/04/20 04:10:41;;;;;;;7.15;5.03;;;;;;;5.60;71.90;100917.88;5063428;28;20056;-89
2022/04/20 04:13:09;;;;;;;8.27;5.32;;;;;;;5.54;71.78;100906.19;5061110;28;20131;-89
2022/04/20 04:15:35;;;;;;;10.25;5.15;;;;;;;5.52;71.18;100910.69;5060238;28;20144;-88
2022/04/20 04:18:04;;;;;;;9.65;5.57;;;;;;;5.54;71.68;100907.97;5061305;28;20060;-89
2022/04/20 04:20:31;;;;;;;7.82;4.97;;;;;;;5.53;71.66;100906.31;5060811;28;20060;-89
2022/04/20 04:22:58;;;;;;;10.05;5.30;;;;;;;5.51;71.96;100916.81;5060581;28;20084;-89
2022/04/20 04:25:25;;;;;;;7.95;5.63;;;;;;;5.48;71.65;100914.44;5062153;28;20080;-90
2022/04/20 04:27:52;;;;;;;11.60;5.57;;;;;;;5.48;71.44;100914.44;5061495;28;20511;-89
2022/04/20 04:30:20;;;;;;;9.63;5.43;;;;;;;5.57;71.54;100939.72;5061486;28;20087;-89
2022/04/20 04:32:47;;;;;;;7.00;5.18;;;;;;;5.64;70.74;100916.72;5062260;28;20044;-89
2022/04/20 04:35:14;;;;;;;8.82;5.43;;;;;;;5.53;70.67;100909.72;5061045;28;20435;-89
2022/04/20 04:37:41;;;;;;;9.77;5.30;;;;;;;5.61;71.40;100933.34;5059689;28;20048;-89
2022/04/20 04:40:08;;;;;;;10.35;5.95;;;;;;;5.63;70.80;100939.25;5060728;28;20531;-90
2022/04/20 04:42:35;;;;;;;8.40;5.05;;;;;;;5.75;69.95;100936.63;5059263;28;20052;-90
2022/04/20 04:50:33;;;;;;;7.15;5.10;;;;;;;5.89;69.53;100932.06;5071526;28;20068;-90
2022/04/20 04:53:02;;;;;;;10.50;5.78;;;;;;;5.88;69.75;100932.97;5062904;28;20057;-90
2022/04/20 04:55:36;;;;;;;8.68;5.20;;;;;;;5.94;69.63;100939.50;5060708;28;20057;-89
2022/04/20 04:58:03;;;;;;;9.45;5.15;;;;;;;6.12;69.36;100950.25;5062209;28;20112;-90
2022/04/20 05:00:29;;;;;;;13.07;6.05;;;;;;;6.08;69.37;100934.06;5060143;28;20057;-90
2022/04/20 05:02:57;;;;;;;20.10;5.93;;;;;;;6.18;69.15;100944.56;5058844;28;20118;-90
2022/04/20 05:05:24;;;;;;;19.23;6.60;;;;;;;6.28;68.55;100958.47;5060144;28;20052;-89
2022/04/20 05:07:54;;;;;;;19.02;6.10;;;;;;;6.27;69.61;100943.84;5059718;28;20095;-90
2022/04/20 05:10:21;;;;;;;10.98;6.03;;;;;;;6.16;69.38;100926.47;5059830;28;20098;-89
2022/04/20 05:12:48;;;;;;;13.20;6.15;;;;;;;6.41;69.87;100964.38;5062986;28;20060;-90
2022/04/20 05:15:14;;;;;;;10.85;5.75;;;;;;;6.50;69.56;100965.44;5063318;28;20048;-90
2022/04/20 05:17:41;;;;;;;13.05;6.07;;;;;;;6.53;69.57;100955.63;5062533;28;20132;-90
2022/04/20 05:20:11;;;;;;;16.73;5.82;;;;;;;6.65;69.01;100964.19;5062824;28;20056;-90
2022/04/20 05:22:38;;;;;;;11.68;6.45;;;;;;;6.69;69.03;100955.19;5063486;28;20049;-90
2022/04/20 05:25:05;;;;;;;19.55;6.68;;;;;;;6.87;68.33;100953.72;5065049;28;20053;-91
2022/04/20 05:27:32;;;;;;;17.50;6.72;;;;;;;6.91;68.69;100955.13;5066533;28;20049;-94
2022/04/20 05:29:59;;;;;;;10.05;6.07;;;;;;;6.92;68.39;100955.94;5067405;28;20411;-93
2022/04/20 05:32:26;;;;;;;15.35;6.40;;;;;;;6.98;68.59;100940.69;5066646;28;20044;-93
2022/04/20 05:34:53;;;;;;;17.02;6.07;;;;;;;7.13;66.64;100937.75;5066897;28;20045;-91
2022/04/20 05:42:54;;;;;;;8.40;5.32;;;;;;;8.61;61.71;100938.91;5072605;28;20566;-94
2022/04/20 05:45:28;;;;;;;7.18;5.10;;;;;;;10.05;56.43;100932.59;5073292;28;20168;-95
2022/04/20 05:47:58;;;;;;;14.45;5.50;;;;;;;11.87;52.21;100950.38;5066812;28;20045;-88
2022/04/20 05:50:24;;;;;;;10.30;5.20;;;;;;;12.83;47.79;100956.06;5062680;28;20036;-88
2022/04/20 05:53:03;;;;;;;6.97;5.05;;;;;;;12.76;46.54;100941.16;5062609;28;20091;-91
2022/04/20 05:55:30;;;;;;;6.28;4.78;;;;;;;13.62;44.21;100954.59;5062854;28;20056;-89
2022/04/20 05:57:57;;;;;;;11.23;4.60;;;;;;;14.01;42.39;100944.09;5063213;28;20045;-89
2022/04/20 06:00:24;;;;;;;7.50;4.97;;;;;;;13.77;43.22;100959.97;5063700;28;20053;-90
2022/04/20 06:02:52;;;;;;;10.38;5.90;;;;;;;14.25;43.30;100959.78;5086755;28;20131;-89
2022/04/20 06:05:20;;;;;;;12.88;5.70;;;;;;;14.96;44.43;100959.72;5082220;28;20068;-88
2022/04/20 06:07:47;;;;;;;14.52;5.82;;;;;;;14.66;46.00;100972.75;5082513;28;20514;-90
2022/04/20 06:10:15;;;;;;;19.63;5.68;;;;;;;15.24;44.27;100947.59;5082562;28;20044;-89
2022/04/20 06:12:42;;;;;;;18.55;5.55;;;;;;;15.11;43.04;100947.41;5086525;28;20081;-90
2022/04/20 06:15:10;;;;;;;19.50;5.88;;;;;;;14.98;42.33;100941.91;5088511;28;20048;-89
2022/04/20 06:17:37;;;;;;;10.85;5.28;;;;;;;15.15;40.54;100953.94;5083941;28;20056;-89
2022/04/20 06:22:46;;;;;;;11.03;5.37;;;;;;;15.01;39.82;100954.72;5066761;28;20065;-89
2022/04/20 06:25:13;;;;;;;16.83;5.60;;;;;;;15.85;38.47;100954.44;5084850;28;20060;-90
2022/04/20 06:27:42;;;;;;;9.95;5.38;;;;;;;16.21;37.96;100962.41;5084901;28;20048;-90
2022/04/20 06:30:10;;;;;;;10.38;5.10;;;;;;;15.47;39.08;100973.94;5084491;28;20078;-90
2022/04/20 06:32:37;;;;;;;14.23;6.35;;;;;;;15.76;39.29;100955.50;5095482;28;20128;-90
2022/04/20 06:35:10;;;;;;;13.65;5.63;;;;;;;15.11;40.23;100969.31;5110866;22;20131;-82
2022/04/20 06:37:36;;;;;;;9.65;5.03;;;;;;;16.43;37.28;100963.28;5100931;28;20819;-81
2022/04/20 06:40:04;;;;;;;8.95;6.07;;;;;;;15.48;38.13;100975.56;5095373;28;20131;-80
2022/04/20 06:42:31;;;;;;;9.02;5.38;;;;;;;15.91;37.80;100966.09;5097571;28;20055;-81
2022/04/20 06:44:59;;;;;;;6.88;5.05;;;;;;;17.14;35.50;100973.94;5096897;28;20455;-81
2022/04/20 06:47:27;;;;;;;8.05;4.97;;;;;;;15.93;37.54;100969.34;5097945;28;20072;-79
2022/04/20 06:49:54;;;;;;;10.77;5.38;;;;;;;16.50;38.49;100971.28;5096177;28;20604;-80
2022/04/20 07:00:36;;;;;;;8.10;5.13;;;;;;;17.16;36.47;100966.66;5098413;28;20051;-80
2022/04/20 07:03:04;;;;;;;6.78;4.88;;;;;;;16.78;35.69;100971.38;5098475;28;20051;-80
2022/04/20 07:05:31;;;;;;;9.98;4.50;;;;;;;17.94;34.31;100967.41;5099506;28;20157;-79
2022/04/20 07:07:57;;;;;;;7.38;5.35;;;;;;;16.66;34.88;100960.50;5098016;28;20468;-80
2022/04/20 07:10:24;;;;;;;9.15;4.65;;;;;;;17.18;35.78;100968.09;5099332;28;20395;-80
2022/04/20 07:12:51;;;;;;;12.02;5.10;;;;;;;18.00;34.00;100972.72;5101375;28;20071;-80
2022/04/20 07:15:18;;;;;;;8.13;4.82;;;;;;;17.53;33.27;100968.13;5107371;28;20131;-80
2022/04/20 07:17:46;;;;;;;7.57;4.57;;;;;;;16.57;34.21;100961.56;5102153;28;20070;-81
2022/04/20 07:20:17;;;;;;;8.70;4.50;;;;;;;16.90;34.15;100962.78;5101189;28;20112;-80
2022/04/20 07:22:44;;;;;;;16.13;5.30;;;;;;;17.64;34.14;100966.78;5100847;28;20058;-81
2022/04/20 07:25:11;;;;;;;8.32;4.50;;;;;;;18.34;31.68;100955.16;5100617;28;20059;-80
2022/04/20 07:27:38;;;;;;;10.70;4.40;;;;;;;18.35;31.22;100959.44;5100377;28;20052;-80
2022/04/20 07:30:05;;;;;;;9.05;4.60;;;;;;;17.08;32.47;100958.84;5102261;28;20051;-80
2022/04/20 07:32:33;;;;;;;7.45;4.43;;;;;;;16.77;32.60;100959.19;5103757;28;20131;-80
2022/04/20 07:35:01;;;;;;;6.57;4.13;;;;;;;16.82;32.16;100968.19;5103455;28;20068;-80
2022/04/20 07:37:28;;;;;;;5.45;4.15;;;;;;;17.48;31.04;100960.81;5104685;28;20076;-80
2022/04/20 07:39:56;;;;;;;17.42;5.18;;;;;;;17.15;31.87;100970.28;5104651;28;20071;-80
2022/04/20 07:42:23;;;;;;;7.30;3.95;;;;;;;15.22;33.49;100965.41;5105159;28;20088;-80
2022/04/20 07:44:49;;;;;;;7.57;4.20;;;;;;;15.32;33.13;100971.25;5104158;28;20100;-80
2022/04/20 07:47:16;;;;;;;20.20;5.53;;;;;;;15.97;32.83;100965.34;5105184;28;20280;-80
2022/04/20 07:52:24;;;;;;;10.43;4.50;;;;;;;15.78;32.15;100973.81;5090147;28;20045;-81
2022/04/20 07:54:54;;;;;;;6.50;3.83;;;;;;;16.23;31.83;100976.22;5101170;28;20128;-81
2022/04/20 07:57:21;;;;;;;9.30;3.88;;;;;;;15.94;31.64;100981.56;5099520;28;20466;-81
2022/04/20 07:59:47;;;;;;;7.70;3.70;;;;;;;16.44;32.18;100982.59;5099396;28;20095;-81
2022/04/20 08:02:14;;;;;;;6.78;4.10;;;;;;;15.65;30.85;100986.78;5098180;28;20044;-83
2022/04/20 08:04:40;;;;;;;5.28;3.60;;;;;;;16.22;31.18;100974.59;5098705;28;20116;-81
2022/04/20 08:07:16;;;;;;;5.72;3.65;;;;;;;16.41;31.27;100972.38;5100077;28;20074;-82
2022/04/20 08:09:47;;;;;;;8.20;5.05;;;;;;;16.64;30.08;100970.44;5100995;28;20082;-82
2022/04/20 08:12:16;;;;;;;10.15;4.90;;;;;;;15.84;30.90;100965.16;5101261;28;20043;-80
2022/04/20 08:14:51;;;;;;;6.80;5.20;;;;;;;16.25;30.75;100957.56;5099969;28;20043;-78
2022/04/20 08:20:20;;;;;;;12.13;5.75;;;;;;;15.47;32.24;100971.28;5098488;28;20556;-80
2022/04/20 08:23:09;;;;;;;11.60;4.53;;;;;;;15.54;31.69;100965.13;5099140;28;20267;-80
2022/04/20 08:25:57;;;;;;;9.27;4.55;;;;;;;16.31;31.12;100977.13;5095971;28;20079;-80
2022/04/20 08:31:15;;;;;;;7.55;3.97;;;;;;;16.36;30.98;100974.75;5094988;28;20109;-80
2022/04/20 08:33:43;;;;;;;11.15;4.35;;;;;;;16.30;31.28;100975.50;5102137;28;20040;-81
2022/04/20 08:36:11;;;;;;;6.00;4.05;;;;;;;17.74;28.10;100986.66;5105494;28;20048;-80
2022/04/20 08:38:38;;;;;;;9.10;4.70;;;;;;;16.95;29.72;100977.25;5102420;28;20059;-80
2022/04/20 08:41:08;;;;;;;6.88;3.80;;;;;;;17.75;27.89;100972.41;5101081;28;20238;-79
2022/04/20 08:43:36;;;;;;;8.45;4.45;;;;;;;15.98;31.27;100974.91;5110676;28;20147;-79
2022/04/20 08:46:03;;;;;;;8.13;3.90;;;;;;;16.55;30.85;100979.44;5096831;28;20134;-79
2022/04/20 08:48:30;;;;;;;8.05;3.72;;;;;;;16.63;28.42;100981.97;5096083;28;20079;-80
2022/04/20 08:50:57;;;;;;;6.30;4.00;;;;;;;16.57;29.27;100972.13;5096094;28;20502;-80
2022/04/20 08:53:24;;;;;;;6.43;4.35;;;;;;;16.77;28.68;100978.50;5096994;28;20150;-80
2022/04/20 08:57:15;;;;;;;12.57;4.10;;;;;;;16.75;29.65;100974.41;5096616;28;20107;-80
2022/04/20 08:58:41;;;;;;;8.23;4.13;;;;;;;15.86;30.12;100979.00;5096830;28;20048;-80
2022/04/20 09:01:09;;;;;;;9.45;4.25;;;;;;;15.54;31.93;100973.03;5096827;28;20142;-80
2022/04/20 09:03:37;;;;;;;7.18;4.07;;;;;;;15.56;31.46;100971.06;5096486;28;20135;-80
2022/04/20 09:06:17;;;;;;;14.52;4.15;;;;;;;16.11;30.66;100972.41;5096079;28;20113;-80
2022/04/20 09:08:45;;;;;;;9.80;4.50;;;;;;;16.03;30.27;100966.44;5096018;28;20090;-80
2022/04/20 09:11:12;;;;;;;7.22;4.20;;;;;;;16.49;30.59;100961.72;5096662;28;20135;-80
2022/04/20 09:13:44;;;;;;;10.65;4.40;;;;;;;16.64;30.37;100975.72;5094862;28;20094;-80
2022/04/20 09:16:12;;;;;;;9.40;3.90;;;;;;;16.20;30.73;100962.59;5094926;28;20056;-80
2022/04/20 09:18:42;;;;;;;8.57;4.38;;;;;;;16.04;30.82;100963.63;5094800;28;20464;-77
2022/04/20 09:21:10;;;;;;;5.88;3.80;;;;;;;16.21;30.12;100959.75;5095689;28;20052;-80
2022/04/20 09:23:36;;;;;;;5.28;3.88;;;;;;;16.47;29.92;100967.19;5097034;28;20547;-79
2022/04/20 09:26:11;;;;;;;7.55;4.80;;;;;;;17.03;29.09;100961.22;5095039;28;20133;-79
2022/04/20 09:28:40;;;;;;;6.10;4.30;;;;;;;16.17;29.95;100955.84;5095324;28;20145;-79
2022/04/20 09:31:10;;;;;;;5.30;4.18;;;;;;;16.08;31.24;100956.94;5095368;28;20047;-78
2022/04/20 09:33:44;;;;;;;5.60;4.38;;;;;;;16.22;30.55;100950.00;5095771;28;20052;-78
2022/04/20 09:36:12;;;;;;;12.75;4.32;;;;;;;16.49;30.29;100964.34;5095097;28;20115;-79
2022/04/20 09:38:41;;;;;;;5.88;3.90;;;;;;;15.73;30.63;100955.06;5094478;28;20552;-78
2022/04/20 09:41:09;;;;;;;14.68;5.10;;;;;;;15.59;31.10;100946.97;5095462;28;20056;-79
2022/04/20 09:43:36;;;;;;;5.00;3.95;;;;;;;15.88;30.95;100942.69;5095104;28;20052;-79
2022/04/20 09:48:50;;;;;;;7.80;4.05;;;;;;;15.77;31.15;100937.88;5096548;28;20084;-79
2022/04/20 09:48:52;;;;;;;5.80;3.72;;;;;;;15.67;31.09;100932.03;5095593;28;20054;-78
2022/04/20 09:51:22;;;;;;;8.77;3.80;;;;;;;16.04;30.97;100921.38;5095200;28;20088;-78
2022/04/20 09:53:50;;;;;;;8.23;4.28;;;;;;;16.44;30.16;100924.47;5098746;28;20134;-80
2022/04/20 09:56:18;;;;;;;7.78;3.88;;;;;;;16.56;30.11;100933.53;5097355;28;20052;-80
2022/04/20 09:58:46;;;;;;;7.05;4.03;;;;;;;15.92;30.94;100928.13;5101786;28;20464;-80
2022/04/20 10:01:36;;;;;;;6.63;4.10;;;;;;;16.45;30.03;100926.94;5101197;28;20059;-81
2022/04/20 10:04:08;;;;;;;6.35;4.03;;;;;;;16.53;30.54;100918.88;5102052;28;20079;-80
2022/04/20 10:06:36;;;;;;;4.72;4.05;;;;;;;16.11;30.37;100914.34;5100116;28;20060;-80
2022/04/20 10:09:03;;;;;;;6.85;3.88;;;;;;;16.24;30.38;100903.13;5098402;28;20044;-79
2022/04/20 10:11:32;;;;;;;5.95;3.55;;;;;;;16.55;30.38;100894.91;5099321;28;20044;-79
2022/04/20 10:16:48;;;;;;;7.38;4.18;;;;;;;15.87;30.61;100906.75;5101886;28;20106;-80
2022/04/20 10:19:26;;;;;;;7.97;4.25;;;;;;;15.83;30.70;100908.94;5101506;28;20364;-80
2022/04/20 10:21:54;;;;;;;3.95;3.40;;;;;;;15.76;30.26;100894.00;5101103;28;20059;-79
2022/04/20 10:24:25;;;;;;;6.63;3.88;;;;;;;15.99;30.65;100888.63;5100839;28;20482;-80
2022/04/20 10:26:52;;;;;;;7.72;3.67;;;;;;;16.15;30.90;100909.50;5102223;28;20107;-80
2022/04/20 10:29:28;;;;;;;8.13;4.25;;;;;;;16.60;29.83;100884.59;5098681;28;20048;-80
2022/04/20 10:32:01;;;;;;;5.10;3.80;;;;;;;16.09;29.73;100894.41;5105237;28;20083;-80
2022/04/20 10:34:31;;;;;;;5.38;3.75;;;;;;;16.50;29.95;100892.84;5101351;28;20453;-81
2022/04/20 10:36:58;;;;;;;6.82;3.95;;;;;;;16.18;30.22;100882.75;5100481;28;20138;-79
2022/04/20 10:39:27;;;;;;;8.13;4.07;;;;;;;16.06;30.21;100885.06;5100161;28;20434;-80
2022/04/20 10:42:19;;;;;;;7.72;4.20;;;;;;;16.57;29.81;100877.03;5102691;28;20082;-81
2022/04/20 10:45:00;;;;;;;5.20;3.70;;;;;;;17.03;29.58;100874.00;5102863;28;20047;-81
2022/04/20 10:47:28;;;;;;;5.85;3.80;;;;;;;17.05;29.04;100875.44;5103051;28;20051;-80
2022/04/20 10:50:15;;;;;;;8.10;3.90;;;;;;;16.78;29.52;100855.09;5102866;28;20044;-81
2022/04/20 10:52:46;;;;;;;5.65;3.83;;;;;;;16.96;30.11;100858.09;5101961;28;20189;-81
2022/04/20 10:55:13;;;;;;;7.07;3.97;;;;;;;17.09;30.94;100862.66;5102775;28;20104;-81
2022/04/20 10:57:41;;;;;;;7.10;3.80;;;;;;;16.80;30.16;100856.56;5099376;28;20102;-81
2022/04/20 11:00:27;;;;;;;6.30;3.80;;;;;;;16.06;30.29;100853.38;5097738;28;20064;-80
2022/04/20 11:02:55;;;;;;;8.68;4.30;;;;;;;16.88;29.95;100853.78;5100309;28;20128;-81
2022/04/20 11:05:24;;;;;;;5.35;3.60;;;;;;;16.73;29.52;100852.22;5101862;28;20455;-81
2022/04/20 11:08:15;;;;;;;5.50;3.90;;;;;;;17.03;30.15;100842.28;5102212;28;20044;-81
2022/04/20 11:10:43;;;;;;;10.75;4.00;;;;;;;17.61;29.38;100837.50;5084114;28;20052;-80
2022/04/20 11:19:05;;;;;;;4.45;3.58;;;;;;;17.18;29.56;100837.69;5061853;28;20064;-80
2022/04/20 11:21:34;;;;;;;6.43;4.00;;;;;;;17.50;28.64;100831.75;5100089;28;20135;-80
2022/04/20 11:24:05;;;;;;;6.45;3.92;;;;;;;17.23;29.30;100840.59;5099115;28;20072;-80
2022/04/20 11:26:34;;;;;;;7.47;3.70;;;;;;;16.87;28.81;100830.19;5097964;28;20054;-80
2022/04/20 11:29:03;;;;;;;5.13;3.40;;;;;;;17.25;28.57;100839.38;5098511;28;20139;-80
2022/04/20 11:31:37;;;;;;;12.52;4.38;;;;;;;16.98;29.46;100820.91;5098551;28;20060;-81
2022/04/20 11:34:04;;;;;;;8.52;4.07;;;;;;;16.84;29.53;100825.28;5098041;28;20054;-81
2022/04/20 11:36:31;;;;;;;4.45;3.75;;;;;;;16.89;29.27;100817.59;5098373;28;20067;-82
2022/04/20 11:39:00;;;;;;;5.35;3.60;;;;;;;17.85;29.09;100802.63;5098250;28;20143;-81
2022/04/20 11:41:27;;;;;;;4.93;3.60;;;;;;;17.43;28.75;100804.50;5095888;22;20068;-78
2022/04/20 11:43:54;;;;;;;4.20;3.30;;;;;;;17.06;28.73;100786.38;5067395;28;20059;-79
2022/04/20 11:46:21;;;;;;;5.25;3.90;;;;;;;17.64;28.97;100816.78;5059217;28;20095;-79
2022/04/20 11:48:53;;;;;;;4.80;3.25;;;;;;;17.45;28.63;100807.75;5056159;28;20052;-77
2022/04/20 11:51:25;;;;;;;3.57;2.90;;;;;;;17.52;29.05;100798.00;5055513;28;20045;-78
2022/04/20 11:53:55;;;;;;;5.47;3.33;;;;;;;17.56;28.78;100804.53;5057701;28;20056;-79
2022/04/20 11:56:40;;;;;;;4.70;3.50;;;;;;;17.55;28.63;100791.50;5060454;28;20396;-80
2022/04/20 11:59:08;;;;;;;6.32;3.30;;;;;;;17.59;29.33;100792.72;5058212;28;20112;-80
2022/04/20 12:01:36;;;;;;;6.35;3.75;;;;;;;17.39;28.87;100791.84;5058321;28;20118;-81
2022/04/20 12:04:12;;;;;;;4.60;3.28;;;;;;;17.76;28.19;100790.59;5059763;28;20106;-79
2022/04/20 12:06:44;;;;;;;4.43;3.58;;;;;;;17.94;28.11;100790.84;5058143;28;20400;-80
2022/04/20 12:09:11;;;;;;;4.15;3.17;;;;;;;17.70;29.09;100794.03;5062301;28;20419;-80
2022/04/20 12:11:40;;;;;;;5.60;4.05;;;;;;;17.78;29.08;100785.91;5062838;28;20159;-82
2022/04/20 12:14:07;;;;;;;5.60;3.97;;;;;;;18.22;29.13;100783.56;5059708;28;20053;-79
2022/04/20 12:16:35;;;;;;;9.80;4.10;;;;;;;17.98;28.60;100780.66;5058692;28;20084;-79
2022/04/20 12:19:03;;;;;;;9.98;3.80;;;;;;;17.83;29.75;100778.19;5064832;28;20103;-79